Time;durP1;ratioP1;P1;durP2;ratioP2;P2;SDS_P1;SDS_P2;PMS_P1;PMS_P2;Temp;Humidity;BMP_temperature;BMP_pressure;BME280_temperature;BME280_humidity;BME280_pressure;Samples;Min_cycle;Max_cycle;Signal;HPM_P1;HPM_P2
2023/03/18 05:30:11;;;;;;;4.22;1.25;;;12.30;86.20;;;;;;6072377;23;20021;-75
2023/03/18 05:32:37;;;;;;;3.95;0.93;;;12.30;86.30;;;;;;4986811;28;20030;-75
2023/03/18 05:35:03;;;;;;;4.85;0.90;;;12.30;86.40;;;;;;4995259;28;20033;-75
2023/03/18 05:37:28;;;;;;;4.95;0.95;;;12.30;86.20;;;;;;4995451;28;20041;-75
2023/03/18 05:39:54;;;;;;;7.63;1.10;;;12.20;86.30;;;;;;4995371;28;20026;-74
2023/03/18 05:42:20;;;;;;;2.20;0.60;;;12.20;86.50;;;;;;4982657;28;20030;-75
2023/03/18 05:44:46;;;;;;;3.53;1.13;;;12.20;86.60;;;;;;4958461;28;20026;-75
2023/03/18 05:47:12;;;;;;;6.35;0.73;;;12.10;86.60;;;;;;4975771;28;20045;-75
2023/03/18 05:49:38;;;;;;;2.25;1.00;;;12.10;86.90;;;;;;4975573;28;20034;-75
2023/03/18 05:52:04;;;;;;;1.20;0.60;;;12.20;86.80;;;;;;4978067;28;20023;-76
2023/03/18 05:54:29;;;;;;;1.13;0.63;;;12.00;86.60;;;;;;4979155;28;20049;-75
2023/03/18 05:56:55;;;;;;;1.65;1.00;;;12.10;86.80;;;;;;4979218;28;20454;-76
2023/03/18 05:59:23;;;;;;;2.85;0.73;;;12.10;86.70;;;;;;4979004;28;20098;-76
2023/03/18 06:01:49;;;;;;;2.08;0.80;;;12.10;86.60;;;;;;4985460;28;20038;-75
2023/03/18 06:04:18;;;;;;;3.63;1.17;;;12.00;86.70;;;;;;4997660;28;20061;-75
2023/03/18 06:06:44;;;;;;;4.90;1.48;;;12.00;86.50;;;;;;4989048;28;20057;-75
2023/03/18 06:09:12;;;;;;;2.95;0.80;;;12.10;86.50;;;;;;4999015;28;20030;-75
2023/03/18 06:11:38;;;;;;;1.88;1.02;;;12.00;86.40;;;;;;4997732;28;20030;-76
2023/03/18 06:14:06;;;;;;;4.35;0.90;;;12.00;86.40;;;;;;4998600;28;20100;-76
2023/03/18 06:16:32;;;;;;;2.45;0.77;;;12.00;86.30;;;;;;4988819;28;20501;-75
2023/03/18 06:18:58;;;;;;;1.75;0.68;;;12.00;86.20;;;;;;4979906;28;20037;-75
2023/03/18 06:21:24;;;;;;;1.73;0.93;;;12.00;86.30;;;;;;4994101;28;20441;-76
2023/03/18 06:23:50;;;;;;;1.90;0.93;;;12.00;86.50;;;;;;4998127;28;20023;-75
2023/03/18 06:26:16;;;;;;;4.20;0.98;;;12.00;86.20;;;;;;4999735;28;20023;-76
2023/03/18 06:28:42;;;;;;;1.88;0.90;;;12.00;86.60;;;;;;5017944;28;20026;-75
2023/03/18 06:31:09;;;;;;;1.08;0.65;;;12.10;86.50;;;;;;4980702;28;20065;-75
2023/03/18 06:33:35;;;;;;;2.42;0.80;;;12.10;86.40;;;;;;4976289;28;20528;-75
2023/03/18 06:36:01;;;;;;;2.28;0.80;;;12.20;86.30;;;;;;4979835;28;20027;-75
2023/03/18 06:38:27;;;;;;;4.85;0.80;;;12.10;86.20;;;;;;4998269;28;20022;-75
2023/03/18 06:40:54;;;;;;;1.67;0.60;;;12.20;86.30;;;;;;4998340;28;20677;-75
2023/03/18 06:43:20;;;;;;;1.63;0.90;;;12.10;86.30;;;;;;4988723;28;20027;-75
2023/03/18 06:45:46;;;;;;;3.22;0.80;;;12.20;86.20;;;;;;4978656;28;20038;-75
2023/03/18 06:48:12;;;;;;;2.75;0.80;;;12.20;86.20;;;;;;4978478;28;20030;-75
2023/03/18 06:50:39;;;;;;;2.35;0.85;;;12.20;85.90;;;;;;4978650;28;20401;-75
2023/03/18 06:53:06;;;;;;;1.88;0.60;;;12.30;86.10;;;;;;4978368;28;20022;-73
2023/03/18 06:55:32;;;;;;;4.18;0.90;;;12.20;86.20;;;;;;4978699;28;20046;-73
2023/03/18 06:57:57;;;;;;;3.20;0.80;;;12.20;85.70;;;;;;4995374;28;20022;-73
2023/03/18 07:00:24;;;;;;;1.20;0.57;;;12.30;85.90;;;;;;4980016;28;20030;-73
2023/03/18 07:02:51;;;;;;;2.33;0.70;;;12.30;85.80;;;;;;4987629;28;20597;-75
2023/03/18 07:05:17;;;;;;;2.92;0.80;;;12.30;85.60;;;;;;4997698;28;20029;-73
2023/03/18 07:07:43;;;;;;;0.70;0.47;;;12.30;85.30;;;;;;4997676;28;20033;-73
2023/03/18 07:10:21;;;;;;;2.80;0.98;;;12.40;85.10;;;;;;4978981;28;20030;-73
2023/03/18 07:12:47;;;;;;;1.50;0.60;;;12.30;85.30;;;;;;4997664;28;20022;-73
2023/03/18 07:15:13;;;;;;;3.45;1.00;;;12.30;85.00;;;;;;4994581;28;20401;-74
2023/03/18 07:17:39;;;;;;;1.02;0.60;;;12.30;85.10;;;;;;4997274;28;20025;-75
2023/03/18 07:20:06;;;;;;;1.17;0.70;;;12.40;85.50;;;;;;4979740;28;20023;-73
2023/03/18 07:22:32;;;;;;;1.05;0.60;;;12.40;85.20;;;;;;4996777;28;20057;-73
2023/03/18 07:24:58;;;;;;;1.08;0.68;;;12.40;85.20;;;;;;4978211;28;20030;-73
2023/03/18 07:27:23;;;;;;;2.63;0.90;;;12.50;85.20;;;;;;4994690;28;20034;-73
2023/03/18 07:29:49;;;;;;;2.10;0.80;;;12.50;85.00;;;;;;4977730;28;20035;-76
2023/03/18 07:32:15;;;;;;;2.72;1.17;;;12.40;85.10;;;;;;4963065;28;20065;-75
2023/03/18 07:34:41;;;;;;;3.53;0.68;;;12.40;85.20;;;;;;4997013;28;20097;-73
2023/03/18 07:37:07;;;;;;;1.55;0.80;;;12.40;85.10;;;;;;4992185;28;20045;-75
2023/03/18 07:39:33;;;;;;;1.63;0.80;;;12.40;85.20;;;;;;4987844;28;20393;-75
2023/03/18 07:41:59;;;;;;;1.40;0.73;;;12.40;85.20;;;;;;4984072;28;20042;-74
2023/03/18 07:44:25;;;;;;;3.05;0.98;;;12.40;85.20;;;;;;4970563;28;20029;-74
2023/03/18 07:46:51;;;;;;;1.83;0.80;;;12.50;85.20;;;;;;4977149;28;20115;-74
2023/03/18 07:49:16;;;;;;;3.33;0.80;;;12.50;84.90;;;;;;4983596;28;20053;-73
2023/03/18 07:51:42;;;;;;;6.00;0.98;;;12.50;84.90;;;;;;4986887;28;20038;-74
2023/03/18 07:54:08;;;;;;;1.55;0.90;;;12.60;85.00;;;;;;4992620;28;20037;-73
2023/03/18 07:56:33;;;;;;;1.90;0.77;;;12.70;84.90;;;;;;4965143;28;20037;-76
2023/03/18 07:58:59;;;;;;;1.30;0.70;;;12.60;84.90;;;;;;4968668;28;20042;-79
2023/03/18 08:01:26;;;;;;;2.83;1.00;;;12.70;85.20;;;;;;4991050;28;20037;-76
2023/03/18 08:03:52;;;;;;;4.55;1.10;;;12.70;85.00;;;;;;4995571;28;20076;-75
2023/03/18 08:06:17;;;;;;;1.45;0.73;;;12.70;85.10;;;;;;4991860;28;20030;-75
2023/03/18 08:08:43;;;;;;;2.53;1.08;;;12.70;85.10;;;;;;4995159;28;20034;-75
2023/03/18 08:11:09;;;;;;;1.73;0.90;;;12.70;85.10;;;;;;4985851;28;21147;-75
2023/03/18 08:13:37;;;;;;;3.22;0.75;;;12.80;85.10;;;;;;4986435;28;20034;-75
2023/03/18 08:16:03;;;;;;;5.50;1.08;;;12.80;85.00;;;;;;4978068;28;20026;-75
2023/03/18 08:18:29;;;;;;;2.45;0.80;;;12.90;84.80;;;;;;4993611;28;20054;-77
2023/03/18 08:20:55;;;;;;;5.30;0.90;;;13.00;84.80;;;;;;4974055;28;20054;-76
2023/03/18 08:23:22;;;;;;;1.70;0.70;;;13.10;84.70;;;;;;4992955;28;20044;-77
2023/03/18 08:25:49;;;;;;;6.45;1.10;;;13.20;84.60;;;;;;4978487;28;20026;-76
2023/03/18 08:28:16;;;;;;;5.68;1.42;;;13.20;84.50;;;;;;4996399;28;20034;-75
2023/03/18 08:30:42;;;;;;;4.07;1.45;;;13.20;84.30;;;;;;4995455;28;20129;-76
2023/03/18 08:33:07;;;;;;;5.15;1.00;;;13.20;84.20;;;;;;4995394;28;20050;-76
2023/03/18 08:35:34;;;;;;;1.10;0.80;;;13.20;84.30;;;;;;4978714;28;20033;-76
2023/03/18 08:38:00;;;;;;;1.75;0.75;;;13.20;84.20;;;;;;4974212;28;20030;-75
2023/03/18 08:40:26;;;;;;;6.82;1.10;;;13.30;84.20;;;;;;4986319;28;20501;-75
2023/03/18 08:42:52;;;;;;;6.03;1.27;;;13.20;84.50;;;;;;4991811;28;20023;-75
2023/03/18 08:45:18;;;;;;;7.43;1.35;;;13.30;84.30;;;;;;4992077;28;20062;-75
2023/03/18 08:47:43;;;;;;;3.83;1.63;;;13.30;84.20;;;;;;4995119;28;20109;-76
2023/03/18 08:50:10;;;;;;;0.98;0.70;;;13.40;84.40;;;;;;4977169;28;20061;-75
2023/03/18 08:52:37;;;;;;;3.63;0.98;;;13.30;84.30;;;;;;4993115;28;20026;-75
2023/03/18 08:55:04;;;;;;;3.70;1.00;;;13.30;84.40;;;;;;4992298;28;20028;-75
2023/03/18 08:57:30;;;;;;;4.95;0.82;;;13.60;84.30;;;;;;4994268;28;20026;-75
2023/03/18 08:59:56;;;;;;;1.77;0.95;;;13.70;83.80;;;;;;4978311;28;20027;-74
2023/03/18 09:02:22;;;;;;;2.15;0.73;;;13.70;83.60;;;;;;4981805;28;20048;-75
2023/03/18 09:04:49;;;;;;;3.25;0.80;;;13.60;83.60;;;;;;4994215;28;20023;-75
2023/03/18 09:07:14;;;;;;;6.05;1.67;;;13.50;83.60;;;;;;4991245;28;20030;-77
2023/03/18 09:09:40;;;;;;;6.53;1.17;;;13.50;83.50;;;;;;4994190;28;20042;-75
2023/03/18 09:12:06;;;;;;;4.28;0.90;;;14.00;82.80;;;;;;4974749;28;20490;-75
2023/03/18 09:14:33;;;;;;;2.40;0.73;;;14.20;82.20;;;;;;4995993;28;20172;-75
2023/03/18 09:16:59;;;;;;;5.40;1.30;;;14.20;81.70;;;;;;4992198;28;20058;-75
2023/03/18 09:19:26;;;;;;;2.33;0.77;;;14.50;81.60;;;;;;4977595;28;20050;-76
2023/03/18 09:21:52;;;;;;;3.22;1.10;;;15.30;80.20;;;;;;4995534;28;20033;-76
2023/03/18 09:24:17;;;;;;;2.10;0.70;;;15.70;78.50;;;;;;4995596;28;20038;-75
2023/03/18 09:26:43;;;;;;;1.55;0.70;;;15.80;77.60;;;;;;4993795;28;20477;-76
2023/03/18 09:29:09;;;;;;;5.95;0.90;;;15.80;76.50;;;;;;5002796;28;20034;-76
2023/03/18 09:31:36;;;;;;;4.38;1.08;;;16.00;75.50;;;;;;4994792;28;20054;-76
2023/03/18 09:34:02;;;;;;;3.92;0.75;;;16.00;74.90;;;;;;4998513;28;20031;-76
2023/03/18 09:36:28;;;;;;;2.58;0.90;;;16.80;74.00;;;;;;4999003;28;20018;-75
2023/03/18 09:38:53;;;;;;;5.97;0.80;;;16.60;73.50;;;;;;4980246;28;20505;-75
2023/03/18 09:41:37;;;;;;;3.10;1.00;;;16.50;73.40;;;;;;4998521;28;20481;-75
2023/03/18 09:44:23;;;;;;;1.42;0.47;;;16.50;72.80;;;;;;4962536;28;20445;-75
2023/03/18 09:47:00;;;;;;;6.03;1.00;;;15.90;74.50;;;;;;4980510;28;20030;-76
2023/03/18 09:49:45;;;;;;;2.65;0.68;;;15.50;75.50;;;;;;4978572;28;20070;-76
2023/03/18 09:52:26;;;;;;;2.08;0.68;;;15.20;76.70;;;;;;4979456;28;20034;-75
2023/03/18 09:55:10;;;;;;;5.32;1.15;;;14.90;77.90;;;;;;4979621;28;20023;-75
2023/03/18 09:57:41;;;;;;;3.40;1.00;;;15.00;78.40;;;;;;4994983;28;20061;-80
2023/03/18 10:00:33;;;;;;;4.78;0.80;;;15.20;78.30;;;;;;4996022;28;20027;-75
2023/03/18 10:03:03;;;;;;;3.45;0.90;;;15.00;78.40;;;;;;4996555;28;20449;-74
2023/03/18 10:05:32;;;;;;;4.13;1.25;;;14.80;78.80;;;;;;4995438;28;20028;-75
2023/03/18 10:08:05;;;;;;;3.00;1.00;;;14.80;79.40;;;;;;4995929;28;20046;-76
2023/03/18 10:10:40;;;;;;;6.13;1.05;;;14.80;79.30;;;;;;4995669;28;20076;-78
2023/03/18 10:13:27;;;;;;;3.35;0.88;;;14.70;79.40;;;;;;4985737;28;20061;-76
2023/03/18 10:15:56;;;;;;;4.28;1.17;;;14.80;79.60;;;;;;4995599;28;20425;-76
2023/03/18 10:18:30;;;;;;;6.22;1.05;;;15.10;78.50;;;;;;4980241;28;20064;-75
2023/03/18 10:21:04;;;;;;;2.85;0.80;;;15.40;78.40;;;;;;4998594;28;20061;-76
2023/03/18 10:24:07;;;;;;;7.05;1.70;;;15.50;77.40;;;;;;4975220;28;20041;-77
2023/03/18 10:26:42;;;;;;;3.78;1.20;;;15.50;78.00;;;;;;5001501;28;20443;-78
2023/03/18 10:29:20;;;;;;;5.32;0.85;;;15.80;77.60;;;;;;4979035;28;20030;-78
2023/03/18 10:32:17;;;;;;;2.05;0.80;;;15.90;77.30;;;;;;4983054;28;20047;-78
2023/03/18 10:34:48;;;;;;;2.58;1.42;;;16.10;77.20;;;;;;4968695;28;20129;-78
2023/03/18 10:37:30;;;;;;;3.67;0.70;;;16.30;75.80;;;;;;4957525;28;20027;-79
2023/03/18 10:39:58;;;;;;;2.60;0.63;;;16.30;76.20;;;;;;4959249;28;20565;-78
2023/03/18 10:42:29;;;;;;;3.60;0.85;;;15.90;76.30;;;;;;4958835;29;20122;-78
2023/03/18 10:45:13;;;;;;;4.53;0.82;;;16.00;76.80;;;;;;4959308;29;20062;-78
2023/03/18 10:47:43;;;;;;;4.13;0.82;;;16.20;77.00;;;;;;4957668;28;20054;-78
2023/03/18 10:50:34;;;;;;;2.85;0.85;;;16.30;75.40;;;;;;4958777;28;20098;-77
2023/03/18 10:53:42;;;;;;;3.70;1.05;;;16.10;75.10;;;;;;4953631;28;20061;-78
2023/03/18 10:56:11;;;;;;;4.18;1.25;;;16.20;75.10;;;;;;4897208;29;20108;-78
2023/03/18 10:58:39;;;;;;;5.25;1.23;;;16.00;75.30;;;;;;4907021;29;20039;-78
2023/03/18 11:01:11;;;;;;;5.05;1.13;;;15.90;75.40;;;;;;4949857;28;20409;-76
2023/03/18 11:03:58;;;;;;;7.40;1.10;;;15.80;76.00;;;;;;4977703;28;20023;-78
2023/03/18 11:06:58;;;;;;;3.05;1.00;;;15.70;77.10;;;;;;4958768;28;20042;-78
2023/03/18 11:09:34;;;;;;;3.42;0.90;;;15.50;78.00;;;;;;4941767;29;20066;-78
2023/03/18 11:12:12;;;;;;;3.60;1.00;;;15.30;78.20;;;;;;4962965;28;20117;-78
2023/03/18 11:14:39;;;;;;;2.85;1.48;;;15.30;78.70;;;;;;4958516;29;20034;-79
2023/03/18 11:17:26;;;;;;;3.83;0.75;;;15.20;78.70;;;;;;4961551;28;20104;-78
2023/03/18 11:20:19;;;;;;;4.93;1.10;;;15.20;79.60;;;;;;4962312;28;20019;-77
2023/03/18 11:22:49;;;;;;;6.45;1.83;;;15.30;79.70;;;;;;4968427;28;20034;-80
2023/03/18 11:25:18;;;;;;;5.25;1.10;;;15.80;79.50;;;;;;4957216;28;20078;-78
2023/03/18 11:27:56;;;;;;;2.80;0.88;;;16.10;79.80;;;;;;4961320;28;20039;-80
2023/03/18 11:30:24;;;;;;;6.70;1.35;;;16.30;79.10;;;;;;4970957;28;20030;-79
2023/03/18 11:33:09;;;;;;;4.45;1.30;;;16.50;78.90;;;;;;4977785;28;20161;-77
2023/03/18 11:35:56;;;;;;;4.45;1.50;;;16.60;78.70;;;;;;4995504;28;20397;-78
2023/03/18 11:38:28;;;;;;;2.10;1.05;;;16.60;77.60;;;;;;4987797;28;20108;-77
2023/03/18 11:41:13;;;;;;;10.98;3.70;;;16.40;76.90;;;;;;4970890;28;20030;-76
2023/03/18 11:44:00;;;;;;;95.82;37.67;;;16.20;77.30;;;;;;4987230;28;20118;-78
2023/03/18 11:46:42;;;;;;;8.90;2.22;;;16.00;77.30;;;;;;4969031;28;20034;-77
2023/03/18 11:49:21;;;;;;;4.40;1.55;;;15.80;77.70;;;;;;4991250;28;20071;-77
2023/03/18 11:51:56;;;;;;;4.47;1.25;;;15.70;79.00;;;;;;4988648;28;20046;-77
2023/03/18 11:54:57;;;;;;;3.92;1.48;;;15.60;79.60;;;;;;4977699;28;20484;-76
2023/03/18 11:57:44;;;;;;;5.95;1.23;;;15.50;79.40;;;;;;4983436;28;20113;-76
2023/03/18 12:00:30;;;;;;;5.18;1.73;;;15.40;79.70;;;;;;4995288;28;20022;-76
2023/03/18 12:03:14;;;;;;;3.35;1.17;;;15.30;79.70;;;;;;4976995;28;20026;-77
2023/03/18 12:06:25;;;;;;;3.58;1.00;;;15.20;79.30;;;;;;4978451;28;20031;-76
2023/03/18 12:08:58;;;;;;;11.07;1.60;;;15.20;79.60;;;;;;4975600;28;20038;-78
2023/03/18 12:11:52;;;;;;;5.50;1.35;;;15.20;79.60;;;;;;4996192;28;20045;-78
2023/03/18 12:14:35;;;;;;;5.53;1.13;;;15.20;79.40;;;;;;4995669;28;20030;-78
2023/03/18 12:17:20;;;;;;;2.83;1.08;;;15.30;79.40;;;;;;4981658;28;20030;-77
2023/03/18 12:20:25;;;;;;;5.65;1.00;;;15.30;79.10;;;;;;4979153;28;20023;-80
2023/03/18 12:23:12;;;;;;;4.47;1.30;;;15.40;78.70;;;;;;4973703;28;20041;-78
2023/03/18 12:25:49;;;;;;;4.47;1.00;;;15.50;78.60;;;;;;4985590;28;20026;-77
2023/03/18 12:28:22;;;;;;;6.22;1.02;;;15.60;78.50;;;;;;4987532;28;20117;-75
2023/03/18 12:31:18;;;;;;;2.88;0.98;;;15.60;78.40;;;;;;4995717;28;20132;-83
2023/03/18 12:33:55;;;;;;;4.10;1.00;;;15.70;78.20;;;;;;4950389;28;20042;-75
2023/03/18 12:36:30;;;;;;;4.68;1.55;;;15.80;78.10;;;;;;4968537;28;20022;-84
2023/03/18 12:39:20;;;;;;;4.07;1.00;;;15.80;77.70;;;;;;4985204;28;20086;-77
2023/03/18 12:42:09;;;;;;;6.93;1.17;;;15.80;77.80;;;;;;4980675;28;20046;-77
2023/03/18 12:45:08;;;;;;;2.20;0.88;;;15.70;77.60;;;;;;4982292;28;20062;-77
2023/03/18 12:47:45;;;;;;;3.58;1.25;;;15.70;78.30;;;;;;4991637;28;20112;-77
2023/03/18 12:50:16;;;;;;;5.93;1.10;;;15.80;77.90;;;;;;4992571;28;20109;-77
2023/03/18 12:52:51;;;;;;;2.17;1.00;;;15.80;77.70;;;;;;4983795;28;20519;-77
2023/03/18 12:55:28;;;;;;;3.65;1.08;;;15.90;77.20;;;;;;4994809;28;20094;-77
2023/03/18 12:58:10;;;;;;;2.03;0.63;;;16.00;77.30;;;;;;4990126;28;20795;-77
2023/03/18 13:00:54;;;;;;;1.30;0.85;;;16.00;77.00;;;;;;4993775;28;20033;-77
2023/03/18 13:03:40;;;;;;;5.40;1.05;;;16.10;76.70;;;;;;4973510;28;20038;-77
2023/03/18 13:06:09;;;;;;;4.72;1.20;;;16.20;76.70;;;;;;4991110;28;20037;-77
2023/03/18 13:09:07;;;;;;;2.70;0.90;;;16.30;76.50;;;;;;4997662;28;20092;-77
2023/03/18 13:12:00;;;;;;;3.20;0.80;;;16.50;76.10;;;;;;4988726;28;20046;-78
2023/03/18 13:14:38;;;;;;;4.20;0.90;;;16.70;75.60;;;;;;4995626;28;20054;-77
2023/03/18 13:17:05;;;;;;;3.22;0.80;;;16.70;74.30;;;;;;4991277;28;20030;-77
2023/03/18 13:19:34;;;;;;;4.07;0.80;;;16.80;74.70;;;;;;4999219;28;20057;-77
2023/03/18 13:22:37;;;;;;;3.17;0.77;;;16.60;75.20;;;;;;4999212;28;20044;-77
2023/03/18 13:25:33;;;;;;;8.05;0.93;;;16.50;75.80;;;;;;4995928;28;20034;-77
2023/03/18 13:28:35;;;;;;;4.20;0.90;;;16.50;75.90;;;;;;4985044;28;20027;-77
2023/03/18 13:31:44;;;;;;;2.83;0.98;;;16.40;76.10;;;;;;4995784;28;20054;-77
2023/03/18 13:34:47;;;;;;;1.63;0.80;;;16.40;76.40;;;;;;4998702;28;20026;-77
2023/03/18 13:37:46;;;;;;;2.78;1.13;;;16.30;76.80;;;;;;4998770;28;20034;-76
2023/03/18 13:40:34;;;;;;;1.95;0.90;;;16.30;77.00;;;;;;4987754;28;20036;-78
2023/03/18 13:43:03;;;;;;;5.20;0.90;;;16.30;75.90;;;;;;4972801;28;20045;-77
2023/03/18 13:45:36;;;;;;;2.05;0.75;;;16.20;75.40;;;;;;4998032;28;20015;-77
2023/03/18 13:48:08;;;;;;;1.77;0.95;;;16.20;74.50;;;;;;4992842;28;20026;-78
2023/03/18 13:50:38;;;;;;;2.20;1.13;;;16.20;74.10;;;;;;4998272;28;20021;-78
2023/03/18 13:53:15;;;;;;;5.93;1.23;;;16.30;73.30;;;;;;4992385;28;20026;-78
2023/03/18 13:55:46;;;;;;;1.15;0.80;;;16.40;74.30;;;;;;4989493;28;20027;-78
2023/03/18 13:58:18;;;;;;;1.55;0.80;;;16.70;74.40;;;;;;4997989;28;20089;-79
2023/03/18 14:01:14;;;;;;;2.22;1.02;;;16.80;74.20;;;;;;4990930;28;20069;-78
2023/03/18 14:03:43;;;;;;;3.75;1.15;;;16.90;73.60;;;;;;4987872;28;20092;-79
2023/03/18 14:06:11;;;;;;;2.08;0.90;;;16.80;72.40;;;;;;4979159;28;20032;-78
2023/03/18 14:08:37;;;;;;;3.13;1.42;;;16.70;72.70;;;;;;4996089;28;20054;-78
2023/03/18 14:11:19;;;;;;;4.45;1.00;;;16.40;73.60;;;;;;4995602;28;20453;-78
2023/03/18 14:13:55;;;;;;;3.45;1.02;;;16.30;75.10;;;;;;4982859;28;20058;-78
2023/03/18 14:16:42;;;;;;;2.20;0.55;;;16.20;76.10;;;;;;4996962;28;20031;-78
2023/03/18 14:19:31;;;;;;;3.25;1.17;;;16.20;76.10;;;;;;4967438;28;20421;-79
2023/03/18 14:22:27;;;;;;;4.85;0.80;;;16.20;76.50;;;;;;4992212;28;20138;-78
2023/03/18 14:25:16;;;;;;;2.30;0.90;;;16.00;76.20;;;;;;4993788;28;20492;-78
2023/03/18 14:27:48;;;;;;;3.65;0.98;;;15.90;77.40;;;;;;4994842;28;20037;-78
2023/03/18 14:30:29;;;;;;;5.32;0.93;;;15.80;77.10;;;;;;4987637;28;20562;-78
2023/03/18 14:33:24;;;;;;;1.05;0.70;;;15.70;77.40;;;;;;4981797;28;20061;-78
2023/03/18 14:36:04;;;;;;;2.63;0.80;;;15.60;75.70;;;;;;4983500;28;20482;-78
2023/03/18 14:38:41;;;;;;;1.75;0.90;;;15.80;76.30;;;;;;4979967;28;20097;-78
2023/03/18 14:41:20;;;;;;;1.65;0.70;;;16.30;76.30;;;;;;4995799;28;20042;-78
2023/03/18 14:44:16;;;;;;;4.05;0.77;;;16.60;76.30;;;;;;4992574;28;20027;-79
2023/03/18 14:46:44;;;;;;;0.50;0.38;;;17.00;75.20;;;;;;4987034;28;20058;-78
2023/03/18 14:49:35;;;;;;;1.38;0.50;;;17.30;74.60;;;;;;4986168;28;20042;-78
2023/03/18 14:52:13;;;;;;;1.42;0.50;;;17.30;73.60;;;;;;4991687;28;20033;-77
2023/03/18 14:54:43;;;;;;;1.65;0.45;;;17.40;72.90;;;;;;4970947;28;20139;-78
2023/03/18 14:57:09;;;;;;;2.13;0.47;;;17.30;71.40;;;;;;4978370;28;20085;-78
2023/03/18 14:59:34;;;;;;;0.73;0.40;;;17.20;72.10;;;;;;4983858;28;20090;-79
2023/03/18 15:02:02;;;;;;;0.73;0.50;;;17.10;72.30;;;;;;4990632;28;20030;-78
2023/03/18 15:04:28;;;;;;;1.42;0.47;;;17.00;72.80;;;;;;4984981;28;21611;-78
2023/03/18 15:06:57;;;;;;;0.90;0.52;;;17.00;73.20;;;;;;4982674;28;21896;-77
2023/03/18 15:09:27;;;;;;;1.75;0.90;;;16.90;72.70;;;;;;4970221;28;20488;-78
2023/03/18 15:11:54;;;;;;;1.45;0.68;;;16.90;72.90;;;;;;4977296;28;20046;-78
2023/03/18 15:14:29;;;;;;;1.67;0.80;;;17.00;73.00;;;;;;4981081;28;20027;-78
2023/03/18 15:17:00;;;;;;;2.65;0.60;;;17.20;72.70;;;;;;4986412;28;20027;-78
2023/03/18 15:19:27;;;;;;;3.38;1.00;;;17.30;71.70;;;;;;4982810;28;20022;-78
2023/03/18 15:21:55;;;;;;;1.85;0.88;;;17.30;71.20;;;;;;4987681;28;20018;-77
2023/03/18 15:24:24;;;;;;;2.75;0.90;;;17.20;70.70;;;;;;4981470;28;20023;-77
2023/03/18 15:26:58;;;;;;;1.60;0.80;;;17.20;70.50;;;;;;4990035;28;20031;-78
2023/03/18 15:29:27;;;;;;;1.27;0.60;;;17.40;70.30;;;;;;4984602;28;20105;-78
2023/03/18 15:32:04;;;;;;;2.15;0.50;;;17.50;69.30;;;;;;4987486;28;20075;-77
2023/03/18 15:34:30;;;;;;;2.63;0.60;;;17.70;68.40;;;;;;4986790;28;20576;-78
2023/03/18 15:37:02;;;;;;;1.05;0.43;;;17.70;67.80;;;;;;4985518;28;20120;-77
2023/03/18 15:39:36;;;;;;;1.52;0.80;;;17.80;67.60;;;;;;4994337;28;20221;-77
2023/03/18 15:42:12;;;;;;;2.80;0.73;;;17.80;67.00;;;;;;4988501;28;20022;-76
2023/03/18 15:44:38;;;;;;;1.13;0.40;;;17.70;67.40;;;;;;4996534;28;20034;-78
2023/03/18 15:47:23;;;;;;;1.92;0.60;;;17.50;67.70;;;;;;4982964;28;20210;-76
2023/03/18 15:50:00;;;;;;;2.20;0.50;;;17.40;66.20;;;;;;4971330;28;20030;-76
2023/03/18 15:52:32;;;;;;;1.27;0.43;;;17.30;65.60;;;;;;4990273;28;20517;-76
2023/03/18 15:55:00;;;;;;;2.88;0.70;;;17.30;65.80;;;;;;4971100;28;20042;-76
2023/03/18 15:57:38;;;;;;;2.50;0.98;;;17.30;66.40;;;;;;4975814;28;20023;-76
2023/03/18 16:00:09;;;;;;;2.75;0.88;;;17.20;66.60;;;;;;4987474;28;20026;-78
2023/03/18 16:02:36;;;;;;;3.67;0.75;;;17.20;67.10;;;;;;4970891;28;20037;-78
2023/03/18 16:05:16;;;;;;;1.17;0.50;;;17.20;66.40;;;;;;4989056;28;20026;-80
2023/03/18 16:07:42;;;;;;;1.27;0.60;;;17.20;65.90;;;;;;4978598;28;20405;-77
2023/03/18 16:10:08;;;;;;;1.38;0.50;;;17.20;65.80;;;;;;4992564;28;20041;-77
2023/03/18 16:12:36;;;;;;;0.50;0.40;;;17.10;65.50;;;;;;4986825;28;20038;-77
2023/03/18 16:15:05;;;;;;;0.80;0.50;;;16.90;66.30;;;;;;4990688;28;20033;-76
2023/03/18 16:17:32;;;;;;;3.67;0.65;;;16.80;65.80;;;;;;4991909;28;20082;-77
2023/03/18 16:19:58;;;;;;;1.20;0.35;;;16.80;66.60;;;;;;4975270;28;20037;-76
2023/03/18 16:22:25;;;;;;;1.00;0.60;;;16.70;66.90;;;;;;4987268;28;20023;-79
2023/03/18 16:24:51;;;;;;;0.80;0.50;;;16.60;66.50;;;;;;4995477;28;20045;-77
2023/03/18 16:27:28;;;;;;;1.00;0.50;;;16.60;67.00;;;;;;5000932;28;20493;-76
2023/03/18 16:29:54;;;;;;;0.77;0.45;;;16.60;66.50;;;;;;4994539;28;20030;-75
2023/03/18 16:32:20;;;;;;;0.52;0.40;;;16.80;67.20;;;;;;4994052;28;20054;-76
2023/03/18 16:34:45;;;;;;;1.85;0.63;;;16.80;66.90;;;;;;4990600;28;20100;-75
2023/03/18 16:37:24;;;;;;;2.25;0.40;;;16.80;66.20;;;;;;4985458;28;20023;-79
2023/03/18 16:39:50;;;;;;;1.30;0.50;;;17.00;67.10;;;;;;4994714;28;20034;-77
2023/03/18 16:42:16;;;;;;;1.65;0.57;;;17.00;66.20;;;;;;4977572;28;20026;-76
2023/03/18 16:44:42;;;;;;;2.03;0.52;;;17.00;66.60;;;;;;4988420;28;20037;-76
2023/03/18 16:47:24;;;;;;;0.93;0.55;;;17.00;66.90;;;;;;4980967;28;20505;-76
2023/03/18 16:49:50;;;;;;;0.90;0.57;;;16.90;67.10;;;;;;4981556;28;20108;-77
2023/03/18 16:52:16;;;;;;;2.55;0.60;;;16.80;67.70;;;;;;4989328;28;20053;-75
2023/03/18 16:54:43;;;;;;;1.75;0.50;;;16.60;68.10;;;;;;4985537;28;20023;-79
2023/03/18 16:57:18;;;;;;;3.00;0.70;;;16.50;68.30;;;;;;4976908;28;20046;-78
2023/03/18 16:59:52;;;;;;;1.80;0.65;;;16.50;68.40;;;;;;4973964;28;20034;-77
2023/03/18 17:02:29;;;;;;;2.10;0.75;;;16.40;68.60;;;;;;4990907;28;20027;-80
2023/03/18 17:04:55;;;;;;;4.47;0.52;;;16.30;68.90;;;;;;4968878;28;20057;-77
2023/03/18 17:07:21;;;;;;;3.17;0.70;;;16.30;69.40;;;;;;4990751;28;20031;-78
2023/03/18 17:09:47;;;;;;;2.75;0.82;;;16.20;70.00;;;;;;4990094;28;20022;-76
2023/03/18 17:12:14;;;;;;;1.10;0.60;;;16.20;69.80;;;;;;4983988;28;20064;-75
2023/03/18 17:14:43;;;;;;;0.88;0.65;;;16.10;70.10;;;;;;4992781;28;20038;-76
2023/03/18 17:17:21;;;;;;;2.78;0.60;;;16.10;70.10;;;;;;4965761;28;20069;-77
2023/03/18 17:19:47;;;;;;;1.20;0.60;;;16.00;70.40;;;;;;4990268;28;20038;-80
2023/03/18 17:22:31;;;;;;;3.67;0.60;;;16.00;70.60;;;;;;4979906;28;20109;-77
2023/03/18 17:24:59;;;;;;;1.63;0.60;;;16.00;70.80;;;;;;4984880;28;20038;-76
2023/03/18 17:27:37;;;;;;;3.25;0.68;;;15.90;70.40;;;;;;4973923;28;20038;-77
2023/03/18 17:30:09;;;;;;;1.38;0.45;;;15.80;70.50;;;;;;4986994;28;20037;-77
2023/03/18 17:32:34;;;;;;;4.40;1.20;;;15.80;71.20;;;;;;4985938;28;20121;-76
2023/03/18 17:35:00;;;;;;;2.15;0.90;;;15.80;71.10;;;;;;4991572;28;20074;-80
2023/03/18 17:37:26;;;;;;;3.75;0.70;;;15.70;72.10;;;;;;4990806;28;20701;-78
2023/03/18 17:39:52;;;;;;;2.90;0.90;;;15.60;72.90;;;;;;4992121;28;20023;-76
2023/03/18 17:42:30;;;;;;;2.53;0.60;;;15.50;73.60;;;;;;4989640;28;20122;-78
2023/03/18 17:45:02;;;;;;;4.20;1.08;;;15.50;74.50;;;;;;4990982;28;20034;-77
2023/03/18 17:47:27;;;;;;;4.43;0.80;;;15.50;74.90;;;;;;4988927;28;20034;-77
2023/03/18 17:49:53;;;;;;;2.83;0.82;;;15.50;75.10;;;;;;4992806;28;20026;-76
2023/03/18 17:52:21;;;;;;;0.80;0.50;;;15.60;75.10;;;;;;4985975;28;20022;-74
2023/03/18 17:54:46;;;;;;;2.80;0.98;;;15.50;75.20;;;;;;4969858;28;20042;-75
2023/03/18 17:57:14;;;;;;;2.90;1.15;;;15.50;74.70;;;;;;4972742;28;20463;-75
2023/03/18 17:59:40;;;;;;;2.92;0.95;;;15.40;75.10;;;;;;4980032;28;20026;-76
2023/03/18 18:02:19;;;;;;;1.38;0.70;;;15.30;75.50;;;;;;4993538;28;20027;-76
2023/03/18 18:04:45;;;;;;;1.80;0.75;;;15.30;75.90;;;;;;4979720;28;20085;-80
2023/03/18 18:07:20;;;;;;;3.40;0.80;;;15.40;75.90;;;;;;4972360;28;20030;-79
2023/03/18 18:09:48;;;;;;;4.32;1.00;;;15.30;75.90;;;;;;4968430;28;20031;-80
2023/03/18 18:12:23;;;;;;;4.97;1.40;;;15.30;76.00;;;;;;4993413;28;20033;-77
2023/03/18 18:14:49;;;;;;;4.22;0.82;;;15.30;75.90;;;;;;4972207;28;20033;-78
2023/03/18 18:17:16;;;;;;;4.60;1.58;;;15.30;75.90;;;;;;4966946;28;20026;-80
2023/03/18 18:19:42;;;;;;;3.25;1.08;;;15.30;76.10;;;;;;4986407;28;20030;-77
2023/03/18 18:22:24;;;;;;;3.10;1.00;;;15.30;76.20;;;;;;4972203;28;20488;-78
2023/03/18 18:24:51;;;;;;;2.03;1.10;;;15.20;76.30;;;;;;4969229;28;20026;-75
2023/03/18 18:27:17;;;;;;;5.57;1.00;;;15.30;76.30;;;;;;4987850;28;20026;-75
2023/03/18 18:29:47;;;;;;;2.05;1.20;;;15.20;76.50;;;;;;4987415;28;20055;-77
2023/03/18 18:32:14;;;;;;;4.00;1.05;;;15.20;76.50;;;;;;4974926;28;20049;-75
2023/03/18 18:34:40;;;;;;;5.15;1.08;;;15.20;76.50;;;;;;4988786;28;20138;-81
2023/03/18 18:37:08;;;;;;;1.92;0.98;;;15.20;76.40;;;;;;4969921;28;20075;-79
2023/03/18 18:39:34;;;;;;;4.30;1.33;;;15.20;76.70;;;;;;4981443;28;20046;-79
2023/03/18 18:42:00;;;;;;;6.32;1.40;;;15.10;76.90;;;;;;4990817;28;20464;-78
2023/03/18 18:44:27;;;;;;;3.22;1.30;;;15.00;77.10;;;;;;4980495;28;20042;-78